createdAt,value
2023-04-28T00:01:50.757Z,4.43
2023-04-28T00:04:17.592Z,4.93
2023-04-28T00:06:44.459Z,4.75
2023-04-28T00:09:11.064Z,5.10
2023-04-28T00:11:38.526Z,4.97
2023-04-28T00:14:05.504Z,5.90
2023-04-28T00:16:32.114Z,5.50
2023-04-28T00:18:58.614Z,4.88
2023-04-28T00:21:25.022Z,4.85
2023-04-28T00:23:51.450Z,4.82
2023-04-28T00:26:17.853Z,5.38
2023-04-28T00:28:44.288Z,5.35
2023-04-28T00:31:12.510Z,5.80
2023-04-28T00:33:39.903Z,5.60
2023-04-28T00:36:07.037Z,5.43
2023-04-28T00:38:33.447Z,5.68
2023-04-28T00:40:59.905Z,5.40
2023-04-28T00:43:26.620Z,5.22
2023-04-28T00:45:53.390Z,5.32
2023-04-28T00:48:20.153Z,5.00
2023-04-28T00:50:48.362Z,5.40
2023-04-28T00:53:14.806Z,4.63
2023-04-28T00:55:41.392Z,4.78
2023-04-28T00:58:08.417Z,4.82
2023-04-28T01:00:35.221Z,4.28
2023-04-28T01:03:02.084Z,5.00
2023-04-28T01:05:34.088Z,5.78
2023-04-28T01:08:00.565Z,4.93
2023-04-28T01:10:26.963Z,5.03
2023-04-28T01:12:53.512Z,5.25
2023-04-28T01:15:21.292Z,4.97
2023-04-28T01:17:52.422Z,5.40
2023-04-28T01:20:18.858Z,5.50
2023-04-28T01:22:45.410Z,5.07
2023-04-28T01:25:11.907Z,5.00
2023-04-28T01:27:38.318Z,5.88
2023-04-28T01:30:05.443Z,4.85
2023-04-28T01:32:31.970Z,5.63
2023-04-28T01:34:58.428Z,5.38
2023-04-28T01:37:24.857Z,5.90
2023-04-28T01:39:51.248Z,5.45
2023-04-28T01:42:18.449Z,5.38
2023-04-28T01:44:45.498Z,4.82
2023-04-28T01:47:12.023Z,4.90
2023-04-28T01:49:38.440Z,5.85
2023-04-28T01:52:07.593Z,6.07
2023-04-28T01:54:34.062Z,5.60
2023-04-28T01:57:00.590Z,5.75
2023-04-28T01:59:27.266Z,5.30
2023-04-28T02:01:53.810Z,5.68
2023-04-28T02:04:20.533Z,6.00
2023-04-28T02:06:47.058Z,6.95
2023-04-28T02:09:13.539Z,7.43
2023-04-28T02:11:39.947Z,6.20
2023-04-28T02:14:06.443Z,6.22
2023-04-28T02:16:33.783Z,6.57
2023-04-28T02:19:00.564Z,6.43
2023-04-28T02:21:28.023Z,5.50
2023-04-28T02:23:54.412Z,6.05
2023-04-28T02:26:20.819Z,5.88
2023-04-28T02:28:51.382Z,6.13
2023-04-28T02:31:17.857Z,7.07
2023-04-28T02:33:45.574Z,6.75
2023-04-28T02:36:12.171Z,6.38
2023-04-28T02:38:41.419Z,6.85
2023-04-28T02:41:09.397Z,6.78
2023-04-28T02:43:37.496Z,6.53
2023-04-28T02:46:04.650Z,6.15
2023-04-28T02:48:31.600Z,7.20
2023-04-28T02:50:58.024Z,7.03
2023-04-28T02:53:24.425Z,7.60
2023-04-28T02:55:51.053Z,7.22
2023-04-28T02:58:18.229Z,6.65
2023-04-28T03:00:45.751Z,6.22
2023-04-28T03:03:12.988Z,6.25
2023-04-28T03:05:39.750Z,6.65
2023-04-28T03:08:06.302Z,6.25
2023-04-28T03:10:32.716Z,6.32
2023-04-28T03:13:00.370Z,6.40
2023-04-28T03:15:27.034Z,6.85
2023-04-28T03:17:53.684Z,6.88
2023-04-28T03:20:20.184Z,6.65
2023-04-28T03:22:46.597Z,5.72
2023-04-28T03:25:13.187Z,5.82
2023-04-28T03:27:47.888Z,5.60
2023-04-28T03:30:14.461Z,6.05
2023-04-28T03:32:40.958Z,6.13
2023-04-28T03:35:08.224Z,5.35
2023-04-28T03:37:34.754Z,6.18
2023-04-28T03:40:01.476Z,5.85
2023-04-28T03:42:31.165Z,6.53
2023-04-28T03:45:20.438Z,6.32
2023-04-28T03:47:46.976Z,5.57
2023-04-28T03:50:13.420Z,5.32
2023-04-28T03:52:39.874Z,6.30
2023-04-28T03:55:07.328Z,5.95
2023-04-28T03:57:34.441Z,6.10
2023-04-28T04:00:00.873Z,7.78
2023-04-28T04:02:28.533Z,6.45
2023-04-28T04:04:55.305Z,6.28
2023-04-28T04:07:22.370Z,6.53
2023-04-28T04:09:48.931Z,5.65
2023-04-28T04:12:15.377Z,6.15
2023-04-28T04:14:42.502Z,5.80
2023-04-28T04:17:10.149Z,5.80
2023-04-28T04:19:36.601Z,5.80
2023-04-28T04:22:03.064Z,5.90
2023-04-28T04:24:30.122Z,6.60
2023-04-28T04:26:57.502Z,5.78
2023-04-28T04:29:31.631Z,5.32
2023-04-28T04:31:59.643Z,6.20
2023-04-28T04:34:26.085Z,6.28
2023-04-28T04:36:52.546Z,6.72
2023-04-28T04:39:19.648Z,6.63
2023-04-28T04:41:47.464Z,6.30
2023-04-28T04:44:30.164Z,6.72
2023-04-28T04:46:58.031Z,6.90
2023-04-28T04:49:25.915Z,5.38
2023-04-28T04:51:52.386Z,6.25
2023-04-28T04:54:19.214Z,6.53
2023-04-28T04:56:46.660Z,6.05
2023-04-28T04:59:17.397Z,6.57
2023-04-28T05:02:04.171Z,5.45
2023-04-28T05:04:30.699Z,5.85
2023-04-28T05:06:57.379Z,5.85
2023-04-28T05:09:23.946Z,6.10
2023-04-28T05:11:50.450Z,5.18
2023-04-28T05:14:17.614Z,5.88
2023-04-28T05:16:44.779Z,5.15
2023-04-28T05:19:16.122Z,5.65
2023-04-28T05:21:42.897Z,5.50
2023-04-28T05:24:09.414Z,5.55
2023-04-28T05:26:36.587Z,6.10
2023-04-28T05:29:07.100Z,5.25
2023-04-28T05:31:33.751Z,5.60
2023-04-28T05:34:00.236Z,5.15
2023-04-28T05:36:27.738Z,5.72
2023-04-28T05:38:54.177Z,5.28
2023-04-28T05:41:20.767Z,5.40
2023-04-28T05:43:47.719Z,5.00
2023-04-28T05:46:28.440Z,5.55
2023-04-28T05:48:58.077Z,4.70
2023-04-28T05:51:24.840Z,4.93
2023-04-28T05:53:51.598Z,5.40
2023-04-28T05:56:18.209Z,5.72
2023-04-28T05:58:45.217Z,4.85
2023-04-28T06:01:11.951Z,5.30
2023-04-28T06:03:41.724Z,6.18
2023-04-28T06:06:11.854Z,5.20
2023-04-28T06:08:38.947Z,5.15
2023-04-28T06:11:06.191Z,4.47
2023-04-28T06:13:33.004Z,4.88
2023-04-28T06:15:59.575Z,4.97
2023-04-28T06:18:27.029Z,5.30
2023-04-28T06:20:53.496Z,4.70
2023-04-28T06:23:20.076Z,5.13
2023-04-28T06:25:47.768Z,5.68
2023-04-28T06:28:14.960Z,4.82
2023-04-28T06:30:41.524Z,4.88
2023-04-28T06:33:08.031Z,4.85
2023-04-28T06:35:39.049Z,4.85
2023-04-28T06:40:32.593Z,5.28
2023-04-28T06:43:01.065Z,5.00
2023-04-28T06:45:35.421Z,5.07
2023-04-28T06:48:02.292Z,4.97
2023-04-28T06:50:28.822Z,4.80
2023-04-28T06:52:55.300Z,5.05
2023-04-28T06:55:21.711Z,5.07
2023-04-28T06:57:48.153Z,5.15
2023-04-28T07:00:15.365Z,5.00
2023-04-28T07:02:42.107Z,4.50
2023-04-28T07:05:09.442Z,5.35
2023-04-28T07:07:38.557Z,5.05
2023-04-28T07:10:06.099Z,4.70
2023-04-28T07:12:32.561Z,4.55
2023-04-28T07:14:58.969Z,4.50
2023-04-28T07:17:25.464Z,4.65
2023-04-28T07:19:51.909Z,4.78
2023-04-28T07:22:18.334Z,4.93
2023-04-28T07:24:44.932Z,5.07
2023-04-28T07:27:11.341Z,5.10
2023-04-28T07:29:38.024Z,4.95
2023-04-28T07:32:06.851Z,4.82
2023-04-28T07:34:35.676Z,4.47
2023-04-28T07:37:03.131Z,4.60
2023-04-28T07:39:31.856Z,4.57
2023-04-28T07:41:58.984Z,4.82
2023-04-28T07:44:25.558Z,5.20
2023-04-28T07:46:53.400Z,4.28
2023-04-28T07:49:19.820Z,4.70
2023-04-28T07:51:46.350Z,5.28
2023-04-28T07:54:12.787Z,5.47
2023-04-28T07:56:39.238Z,5.72
2023-04-28T07:59:05.642Z,4.47
2023-04-28T08:01:32.112Z,5.57
2023-04-28T08:03:58.703Z,4.80
2023-04-28T08:06:25.579Z,5.07
2023-04-28T08:08:52.054Z,5.25
2023-04-28T08:11:19.548Z,5.63
2023-04-28T08:13:47.002Z,4.95
2023-04-28T08:16:13.539Z,5.18
2023-04-28T08:18:40.137Z,5.28
2023-04-28T08:21:06.715Z,5.07
2023-04-28T08:23:33.127Z,5.60
2023-04-28T08:25:59.540Z,5.40
2023-04-28T08:28:26.252Z,5.15
2023-04-28T08:30:54.442Z,4.72
2023-04-28T08:33:20.933Z,5.32
2023-04-28T08:35:47.337Z,4.70
2023-04-28T08:38:13.899Z,5.10
2023-04-28T08:40:42.627Z,5.25
2023-04-28T08:43:10.636Z,5.43
2023-04-28T08:45:42.899Z,4.80
2023-04-28T08:48:20.573Z,5.18
2023-04-28T08:50:51.015Z,5.30
2023-04-28T08:53:27.523Z,4.70
2023-04-28T08:55:58.123Z,5.38
2023-04-28T08:58:25.750Z,6.05
2023-04-28T09:00:53.630Z,5.57
2023-04-28T09:03:20.777Z,5.85
2023-04-28T09:05:47.788Z,4.75
2023-04-28T09:08:14.656Z,5.47
2023-04-28T09:10:41.202Z,5.10
2023-04-28T09:13:07.878Z,5.93
2023-04-28T09:15:37.307Z,5.80
2023-04-28T09:18:06.246Z,5.97
2023-04-28T09:20:34.023Z,5.20
2023-04-28T09:23:15.245Z,4.85
2023-04-28T09:25:56.428Z,5.68
2023-04-28T09:28:22.927Z,5.13
2023-04-28T09:30:49.347Z,5.82
2023-04-28T09:33:18.526Z,6.07
2023-04-28T09:35:45.804Z,5.93
2023-04-28T09:38:13.202Z,5.88
2023-04-28T09:41:01.533Z,5.28
2023-04-28T09:43:34.847Z,6.15
2023-04-28T09:46:03.452Z,5.50
2023-04-28T09:48:34.851Z,5.60
2023-04-28T09:51:03.156Z,6.32
2023-04-28T09:53:30.378Z,6.63
2023-04-28T09:55:58.714Z,5.82
2023-04-28T09:58:26.841Z,6.07
2023-04-28T10:00:57.912Z,6.45
2023-04-28T10:03:30.132Z,6.35
2023-04-28T10:05:58.830Z,6.78
2023-04-28T10:08:27.449Z,5.97
2023-04-28T10:10:54.744Z,6.00
2023-04-28T10:13:22.669Z,5.38
2023-04-28T10:15:49.923Z,5.45
2023-04-28T10:18:16.973Z,5.30
2023-04-28T10:20:49.447Z,6.55
2023-04-28T10:23:58.397Z,6.43
2023-04-28T10:26:51.524Z,5.57
2023-04-28T10:29:24.201Z,5.78
2023-04-28T10:32:19.706Z,5.95
2023-04-28T10:34:47.199Z,5.88
2023-04-28T10:37:15.057Z,5.78
2023-04-28T10:40:09.305Z,6.05
2023-04-28T10:42:52.796Z,6.30
2023-04-28T10:45:58.059Z,5.53
2023-04-28T10:48:33.428Z,6.05
2023-04-28T10:51:15.017Z,6.28
2023-04-28T10:53:51.257Z,5.85
2023-04-28T10:56:27.831Z,5.70
2023-04-28T10:58:58.358Z,6.55
2023-04-28T11:01:29.675Z,6.60
2023-04-28T11:04:13.885Z,7.38
2023-04-28T11:06:42.183Z,6.40
2023-04-28T11:09:14.170Z,6.40
2023-04-28T11:12:00.886Z,6.05
2023-04-28T11:14:33.115Z,5.78
2023-04-28T11:17:03.451Z,6.35
2023-04-28T11:19:35.634Z,6.90
2023-04-28T11:22:03.458Z,6.05
2023-04-28T11:24:31.080Z,6.40
2023-04-28T11:26:58.856Z,5.38
2023-04-28T11:29:39.634Z,6.40
2023-04-28T11:32:08.561Z,6.70
2023-04-28T11:34:36.277Z,6.65
2023-04-28T11:37:03.313Z,5.75
2023-04-28T11:39:31.563Z,5.88
2023-04-28T11:41:59.653Z,7.03
2023-04-28T11:44:28.155Z,14.07
2023-04-28T11:46:57.378Z,10.85
2023-04-28T11:49:24.625Z,7.18
2023-04-28T11:51:52.535Z,6.90
2023-04-28T11:54:23.976Z,6.68
2023-04-28T11:56:51.303Z,7.47
2023-04-28T11:59:20.616Z,6.55
2023-04-28T12:01:49.907Z,6.78
2023-04-28T12:04:39.201Z,6.63
2023-04-28T12:07:13.374Z,6.10
2023-04-28T12:09:41.970Z,6.30
2023-04-28T12:12:10.068Z,6.53
2023-04-28T12:14:56.274Z,6.65
2023-04-28T12:17:26.786Z,6.22
2023-04-28T12:19:57.944Z,6.78
2023-04-28T12:22:25.419Z,6.47
2023-04-28T12:25:05.395Z,6.75
2023-04-28T12:27:32.225Z,6.20
2023-04-28T12:29:58.638Z,6.45
2023-04-28T12:32:43.500Z,6.70
2023-04-28T12:35:09.953Z,6.05
2023-04-28T12:37:38.319Z,6.45
2023-04-28T12:40:08.476Z,6.50
2023-04-28T12:42:35.793Z,6.30
2023-04-28T12:45:02.281Z,6.18
2023-04-28T12:47:29.111Z,5.82
2023-04-28T12:49:55.539Z,7.00
2023-04-28T12:52:22.297Z,6.55
2023-04-28T12:54:49.264Z,6.13
2023-04-28T12:57:19.673Z,6.03
2023-04-28T12:59:49.019Z,5.65
2023-04-28T13:02:15.514Z,5.90
2023-04-28T13:04:46.318Z,6.45
2023-04-28T13:09:39.550Z,5.68
2023-04-28T13:12:06.040Z,6.40
2023-04-28T13:14:32.813Z,5.85
2023-04-28T13:16:59.222Z,5.75
2023-04-28T13:19:25.767Z,7.00
2023-04-28T13:21:52.186Z,5.53
2023-04-28T13:24:18.605Z,5.82
2023-04-28T13:26:45.199Z,5.68
2023-04-28T13:29:11.721Z,6.13
2023-04-28T13:31:38.413Z,6.25
2023-04-28T13:34:06.051Z,6.63
2023-04-28T13:36:33.152Z,6.57
2023-04-28T13:39:01.647Z,5.93
2023-04-28T13:41:28.729Z,6.60
2023-04-28T13:43:55.158Z,6.15
2023-04-28T13:46:21.719Z,7.78
2023-04-28T13:48:48.457Z,7.05
2023-04-28T13:51:15.058Z,7.63
2023-04-28T13:53:41.464Z,6.68
2023-04-28T13:56:08.276Z,6.68
2023-04-28T13:58:34.847Z,6.25
2023-04-28T14:01:01.308Z,7.05
2023-04-28T14:03:27.893Z,6.38
2023-04-28T14:05:56.350Z,7.03
2023-04-28T14:08:24.871Z,6.78
2023-04-28T14:10:52.322Z,7.68
2023-04-28T14:13:19.542Z,6.53
2023-04-28T14:15:57.851Z,6.63
2023-04-28T14:18:25.420Z,7.20
2023-04-28T14:20:51.956Z,6.20
2023-04-28T14:23:18.405Z,7.05
2023-04-28T14:25:44.818Z,6.53
2023-04-28T14:28:11.709Z,7.20
2023-04-28T14:30:38.262Z,6.78
2023-04-28T14:33:04.850Z,6.00
2023-04-28T14:35:31.978Z,6.32
2023-04-28T14:37:58.404Z,6.63
2023-04-28T14:40:25.582Z,6.78
2023-04-28T14:42:52.764Z,6.35
2023-04-28T14:45:19.210Z,7.65
2023-04-28T14:47:45.746Z,6.65
2023-04-28T14:50:13.979Z,7.75
2023-04-28T14:52:41.183Z,7.25
2023-04-28T14:55:08.112Z,6.93
2023-04-28T14:57:35.237Z,6.97
2023-04-28T15:00:02.455Z,7.05
2023-04-28T15:02:29.563Z,7.63
2023-04-28T15:04:57.199Z,7.50
2023-04-28T15:07:24.836Z,7.57
2023-04-28T15:09:51.416Z,7.82
2023-04-28T15:12:17.876Z,6.40
2023-04-28T15:14:44.268Z,6.72
2023-04-28T15:17:10.765Z,7.00
2023-04-28T15:19:37.827Z,7.18
2023-04-28T15:22:04.382Z,7.28
2023-04-28T15:24:31.077Z,7.43
2023-04-28T15:26:58.607Z,7.53
2023-04-28T15:29:25.473Z,7.85
2023-04-28T15:31:51.925Z,8.02
2023-04-28T15:34:18.525Z,7.70
2023-04-28T15:36:45.374Z,8.25
2023-04-28T15:39:11.814Z,7.95
2023-04-28T15:41:38.238Z,8.15
2023-04-28T15:44:04.951Z,8.05
2023-04-28T15:46:31.770Z,8.10
2023-04-28T15:48:58.746Z,16.90
2023-04-28T15:51:25.393Z,11.13
2023-04-28T15:53:52.049Z,11.05
2023-04-28T15:56:19.721Z,10.45
2023-04-28T15:58:47.414Z,9.50
2023-04-28T16:01:14.122Z,9.02
2023-04-28T16:03:40.885Z,8.38
2023-04-28T16:06:08.218Z,8.05
2023-04-28T16:08:37.700Z,8.45
2023-04-28T16:11:04.355Z,8.70
2023-04-28T16:13:36.946Z,8.88
2023-04-28T16:16:04.095Z,7.88
2023-04-28T16:18:30.826Z,9.65
2023-04-28T16:20:57.522Z,8.68
2023-04-28T16:23:24.054Z,8.23
2023-04-28T16:25:50.830Z,8.25
2023-04-28T16:28:17.495Z,8.20
2023-04-28T16:30:43.958Z,8.68
2023-04-28T16:33:10.602Z,8.18
2023-04-28T16:35:37.203Z,8.65
2023-04-28T16:38:03.894Z,8.60
2023-04-28T16:40:30.587Z,8.90
2023-04-28T16:42:57.549Z,8.68
2023-04-28T16:45:24.129Z,9.00
2023-04-28T16:47:50.660Z,7.88
2023-04-28T16:50:17.691Z,8.20
2023-04-28T16:52:44.133Z,9.10
2023-04-28T16:55:10.696Z,8.70
2023-04-28T16:57:37.477Z,8.90
2023-04-28T17:00:06.132Z,9.00
2023-04-28T17:02:33.317Z,9.85
2023-04-28T17:05:00.008Z,9.00
2023-04-28T17:07:26.721Z,9.50
2023-04-28T17:09:53.454Z,8.88
2023-04-28T17:12:20.972Z,10.30
2023-04-28T17:14:47.554Z,9.63
2023-04-28T17:17:13.992Z,9.48
2023-04-28T17:19:41.618Z,9.77
2023-04-28T17:22:08.298Z,9.82
2023-04-28T17:24:35.029Z,10.02
2023-04-28T17:27:01.746Z,10.82
2023-04-28T17:29:28.203Z,10.63
2023-04-28T17:31:54.918Z,10.85
2023-04-28T17:34:21.497Z,11.30
2023-04-28T17:36:48.082Z,10.80
2023-04-28T17:39:16.387Z,10.27
2023-04-28T17:41:43.727Z,12.10
2023-04-28T17:44:10.167Z,10.75
2023-04-28T17:46:38.465Z,11.95
2023-04-28T17:49:05.333Z,11.63
2023-04-28T17:51:32.411Z,13.75
2023-04-28T17:53:59.203Z,11.93
2023-04-28T17:56:26.314Z,12.02
2023-04-28T17:58:52.864Z,11.88
2023-04-28T18:01:19.545Z,11.75
2023-04-28T18:03:46.282Z,11.15
2023-04-28T18:06:13.731Z,12.77
2023-04-28T18:08:40.905Z,11.30
2023-04-28T18:11:09.895Z,13.95
2023-04-28T18:13:36.496Z,12.73
2023-04-28T18:16:04.933Z,12.57
2023-04-28T18:18:34.745Z,12.15
2023-04-28T18:21:02.377Z,13.20
2023-04-28T18:23:30.328Z,13.43
2023-04-28T18:25:57.035Z,13.00
2023-04-28T18:28:23.454Z,14.20
2023-04-28T18:30:50.033Z,13.43
2023-04-28T18:33:23.036Z,13.45
2023-04-28T18:35:58.457Z,14.07
2023-04-28T18:38:24.877Z,12.50
2023-04-28T18:40:51.261Z,12.20
2023-04-28T18:43:17.646Z,11.85
2023-04-28T18:45:44.599Z,11.27
2023-04-28T18:48:11.543Z,10.93
2023-04-28T18:50:38.298Z,11.07
2023-04-28T18:53:05.070Z,11.15
2023-04-28T18:55:34.460Z,10.57
2023-04-28T18:58:02.153Z,10.80
2023-04-28T19:00:28.875Z,11.25
2023-04-28T19:02:55.623Z,10.88
2023-04-28T19:05:22.389Z,10.57
2023-04-28T19:07:48.889Z,10.80
2023-04-28T19:10:15.677Z,9.05
2023-04-28T19:12:42.119Z,9.57
2023-04-28T19:15:08.742Z,9.48
2023-04-28T19:17:35.234Z,8.80
2023-04-28T19:20:01.809Z,9.00
2023-04-28T19:22:33.121Z,7.38
2023-04-28T19:25:00.220Z,8.00
2023-04-28T19:27:36.029Z,8.00
2023-04-28T19:30:04.025Z,8.10
2023-04-28T19:32:30.670Z,7.80
2023-04-28T19:34:57.126Z,8.45
2023-04-28T19:37:25.125Z,8.35
2023-04-28T19:39:51.827Z,7.55
2023-04-28T19:42:18.574Z,9.30
2023-04-28T19:44:46.554Z,8.60
2023-04-28T19:47:13.341Z,8.52
2023-04-28T19:49:42.110Z,8.45
2023-04-28T19:52:10.196Z,9.60
2023-04-28T19:54:38.764Z,8.75
2023-04-28T19:57:05.365Z,9.25
2023-04-28T19:59:32.004Z,9.40
2023-04-28T20:01:58.703Z,10.20
2023-04-28T20:04:26.004Z,10.63
2023-04-28T20:06:52.619Z,9.50
2023-04-28T20:09:19.090Z,10.50
2023-04-28T20:11:45.618Z,9.05
2023-04-28T20:14:12.248Z,9.23
2023-04-28T20:16:38.679Z,10.18
2023-04-28T20:19:05.087Z,9.10
2023-04-28T20:21:32.782Z,9.73
2023-04-28T20:23:59.193Z,8.88
2023-04-28T20:26:25.632Z,9.45
2023-04-28T20:28:54.051Z,8.93
2023-04-28T20:31:20.496Z,9.68
2023-04-28T20:33:46.953Z,9.70
2023-04-28T20:36:13.380Z,8.57
2023-04-28T20:38:39.777Z,8.68
2023-04-28T20:41:07.755Z,8.93
2023-04-28T20:43:34.220Z,9.90
2023-04-28T20:46:00.654Z,8.95
2023-04-28T20:48:28.981Z,9.55
2023-04-28T20:50:56.460Z,9.80
2023-04-28T20:53:22.894Z,9.63
2023-04-28T20:55:52.110Z,8.57
2023-04-28T20:58:18.978Z,8.45
2023-04-28T21:00:45.470Z,9.15
2023-04-28T21:03:23.489Z,9.27
2023-04-28T21:05:50.263Z,9.48
2023-04-28T21:08:17.054Z,9.65
2023-04-28T21:10:43.469Z,9.10
2023-04-28T21:13:10.262Z,8.48
2023-04-28T21:15:43.043Z,8.95
2023-04-28T21:18:09.626Z,8.50
2023-04-28T21:20:36.170Z,9.13
2023-04-28T21:23:02.815Z,8.48
2023-04-28T21:25:29.328Z,8.88
2023-04-28T21:27:55.770Z,8.05
2023-04-28T21:30:22.471Z,8.57
2023-04-28T21:32:49.099Z,8.32
2023-04-28T21:35:16.284Z,8.30
2023-04-28T21:37:42.983Z,8.85
2023-04-28T21:40:09.939Z,8.68
2023-04-28T21:42:36.390Z,8.32
2023-04-28T21:45:02.954Z,8.27
2023-04-28T21:47:29.885Z,8.43
2023-04-28T21:49:56.392Z,9.27
2023-04-28T21:52:22.803Z,8.65
2023-04-28T21:54:49.211Z,8.88
2023-04-28T21:57:15.829Z,9.43
2023-04-28T21:59:42.350Z,9.15
2023-04-28T22:02:09.096Z,9.30
2023-04-28T22:04:36.033Z,8.70
2023-04-28T22:07:02.659Z,8.35
2023-04-28T22:09:29.167Z,9.10
2023-04-28T22:11:55.596Z,10.20
2023-04-28T22:14:39.688Z,9.13
2023-04-28T22:17:07.686Z,10.10
2023-04-28T22:19:34.197Z,10.55
2023-04-28T22:22:00.723Z,10.95
2023-04-28T22:24:27.807Z,11.45
2023-04-28T22:26:54.885Z,11.38
2023-04-28T22:29:21.602Z,11.90
2023-04-28T22:31:48.095Z,10.75
2023-04-28T22:34:14.572Z,11.52
2023-04-28T22:36:41.540Z,11.05
2023-04-28T22:39:08.244Z,12.00
2023-04-28T22:41:34.650Z,11.30
2023-04-28T22:44:01.042Z,11.35
2023-04-28T22:46:28.813Z,12.05
2023-04-28T22:48:55.786Z,10.23
2023-04-28T22:51:22.219Z,10.77
2023-04-28T22:53:48.672Z,10.35
2023-04-28T22:56:15.819Z,10.07
2023-04-28T22:58:42.395Z,10.55
2023-04-28T23:01:09.116Z,11.13
2023-04-28T23:03:35.688Z,9.70
2023-04-28T23:06:02.207Z,10.10
2023-04-28T23:08:28.612Z,10.45
2023-04-28T23:10:57.005Z,9.18
2023-04-28T23:13:23.531Z,9.90
2023-04-28T23:15:49.979Z,9.55
2023-04-28T23:18:16.443Z,9.68
2023-04-28T23:20:42.856Z,10.10
2023-04-28T23:23:09.297Z,9.32
2023-04-28T23:25:36.374Z,9.52
2023-04-28T23:28:03.204Z,9.82
2023-04-28T23:30:29.725Z,9.38
2023-04-28T23:32:56.500Z,8.32
2023-04-28T23:35:22.958Z,9.15
2023-04-28T23:37:49.371Z,9.05
2023-04-28T23:40:16.013Z,9.05
2023-04-28T23:42:42.448Z,9.60
2023-04-28T23:45:09.773Z,9.48
2023-04-28T23:47:36.309Z,8.45
2023-04-28T23:50:03.434Z,9.68
2023-04-28T23:52:29.892Z,9.20
2023-04-28T23:54:56.333Z,9.05
2023-04-28T23:57:23.184Z,8.38
2023-04-28T23:59:49.831Z,9.13
